createdAt,value
2022-08-18T00:02:15.873Z,1.45
2022-08-18T00:04:49.562Z,1.30
2022-08-18T00:07:19.221Z,1.05
2022-08-18T00:09:47.842Z,1.48
2022-08-18T00:12:17.858Z,1.77
2022-08-18T00:14:48.293Z,1.50
2022-08-18T00:17:16.782Z,1.55
2022-08-18T00:19:48.046Z,1.50
2022-08-18T00:22:17.985Z,1.38
2022-08-18T00:24:48.530Z,1.15
2022-08-18T00:27:21.578Z,1.10
2022-08-18T00:29:52.183Z,1.45
2022-08-18T00:32:21.441Z,1.13
2022-08-18T00:34:49.790Z,1.20
2022-08-18T00:37:18.244Z,1.17
2022-08-18T00:39:48.049Z,1.10
2022-08-18T00:42:27.331Z,1.08
2022-08-18T00:45:01.237Z,1.17
2022-08-18T00:47:41.553Z,1.25
2022-08-18T00:50:15.071Z,0.95
2022-08-18T00:52:44.472Z,0.75
2022-08-18T00:55:12.899Z,1.50
2022-08-18T00:57:42.800Z,1.05
2022-08-18T01:00:14.476Z,0.82
2022-08-18T01:02:44.616Z,1.52
2022-08-18T01:05:16.238Z,1.02
2022-08-18T01:07:46.234Z,1.40
2022-08-18T01:10:17.040Z,1.17
2022-08-18T01:12:47.162Z,1.02
2022-08-18T01:15:28.173Z,1.08
2022-08-18T01:18:16.233Z,0.88
2022-08-18T01:21:05.467Z,0.80
2022-08-18T01:23:35.511Z,0.90
2022-08-18T01:26:08.089Z,0.88
2022-08-18T01:28:39.084Z,2.17
2022-08-18T01:31:11.247Z,1.17
2022-08-18T01:33:40.592Z,0.98
2022-08-18T01:36:14.599Z,0.80
2022-08-18T01:38:44.298Z,0.95
2022-08-18T01:41:26.041Z,0.93
2022-08-18T01:43:56.661Z,0.88
2022-08-18T01:46:25.221Z,1.40
2022-08-18T01:48:53.860Z,0.57
2022-08-18T01:51:40.208Z,0.82
2022-08-18T01:54:11.418Z,0.82
2022-08-18T01:56:40.831Z,1.05
2022-08-18T01:59:14.691Z,0.82
2022-08-18T02:01:50.720Z,0.93
2022-08-18T02:04:34.900Z,0.80
2022-08-18T02:07:06.553Z,1.15
2022-08-18T02:09:37.375Z,1.10
2022-08-18T02:12:07.137Z,0.98
2022-08-18T02:14:35.603Z,1.30
2022-08-18T02:17:05.311Z,1.05
2022-08-18T02:19:34.682Z,1.20
2022-08-18T02:22:03.581Z,1.15
2022-08-18T02:24:31.996Z,1.05
2022-08-18T02:27:01.952Z,1.25
2022-08-18T02:29:30.602Z,0.85
2022-08-18T02:31:58.982Z,0.68
2022-08-18T02:34:27.330Z,1.23
2022-08-18T02:36:55.732Z,0.90
2022-08-18T02:39:24.198Z,1.10
2022-08-18T02:41:53.546Z,1.20
2022-08-18T02:44:23.380Z,0.50
2022-08-18T02:46:53.982Z,1.20
2022-08-18T02:49:22.779Z,0.80
2022-08-18T02:51:51.182Z,0.88
2022-08-18T02:54:20.406Z,0.50
2022-08-18T02:56:50.549Z,0.93
2022-08-18T02:59:20.104Z,0.52
2022-08-18T03:01:51.981Z,0.88
2022-08-18T03:04:26.687Z,1.00
2022-08-18T03:06:57.519Z,0.90
2022-08-18T03:09:25.969Z,0.80
2022-08-18T03:11:54.605Z,0.93
2022-08-18T03:14:23.252Z,0.80
2022-08-18T03:16:54.930Z,0.75
2022-08-18T03:19:24.216Z,0.80
2022-08-18T03:21:53.225Z,0.60
2022-08-18T03:24:22.434Z,0.73
2022-08-18T03:26:51.971Z,1.23
2022-08-18T03:29:20.365Z,0.98
2022-08-18T03:31:49.575Z,1.33
2022-08-18T03:34:20.622Z,0.90
2022-08-18T03:36:50.008Z,0.88
2022-08-18T03:39:19.253Z,0.73
2022-08-18T03:41:57.956Z,1.02
2022-08-18T03:44:29.144Z,1.05
2022-08-18T03:46:57.493Z,0.45
2022-08-18T03:49:27.580Z,0.60
2022-08-18T03:51:55.965Z,0.63
2022-08-18T03:54:24.706Z,0.55
2022-08-18T03:56:54.367Z,1.13
2022-08-18T03:59:24.787Z,0.60
2022-08-18T04:01:53.945Z,0.50
2022-08-18T04:04:23.459Z,0.40
2022-08-18T04:06:55.350Z,0.65
2022-08-18T04:09:24.929Z,0.57
2022-08-18T04:11:53.815Z,0.88
2022-08-18T04:14:24.749Z,0.60
2022-08-18T04:16:53.126Z,1.02
2022-08-18T04:19:26.830Z,0.80
2022-08-18T04:21:58.537Z,0.88
2022-08-18T04:24:28.263Z,0.90
2022-08-18T04:27:01.626Z,0.95
2022-08-18T04:29:30.156Z,0.47
2022-08-18T04:31:58.543Z,0.68
2022-08-18T04:34:27.407Z,1.13
2022-08-18T04:36:57.143Z,0.57
2022-08-18T04:39:25.922Z,0.77
2022-08-18T04:41:54.358Z,0.65
2022-08-18T04:44:22.894Z,0.55
2022-08-18T04:46:52.829Z,0.80
2022-08-18T04:49:21.754Z,0.65
2022-08-18T04:52:22.631Z,1.27
2022-08-18T04:55:01.674Z,0.85
2022-08-18T04:57:34.112Z,0.95
2022-08-18T05:00:04.005Z,1.00
2022-08-18T05:02:33.059Z,0.93
2022-08-18T05:05:03.953Z,0.93
2022-08-18T05:07:32.805Z,0.65
2022-08-18T05:10:02.563Z,0.55
2022-08-18T05:12:30.853Z,0.38
2022-08-18T05:14:59.252Z,1.00
2022-08-18T05:17:30.232Z,0.98
2022-08-18T05:20:00.873Z,0.50
2022-08-18T05:22:31.223Z,0.70
2022-08-18T05:25:00.559Z,0.70
2022-08-18T05:27:35.163Z,1.15
2022-08-18T05:30:03.991Z,0.55
2022-08-18T05:32:47.017Z,1.60
2022-08-18T05:35:20.157Z,0.80
2022-08-18T05:37:55.936Z,0.77
2022-08-18T05:40:25.533Z,0.40
2022-08-18T05:42:57.460Z,1.63
2022-08-18T05:45:26.008Z,0.98
2022-08-18T05:48:00.045Z,1.15
2022-08-18T05:50:29.446Z,0.95
2022-08-18T05:52:59.229Z,0.90
2022-08-18T05:55:49.110Z,1.00
2022-08-18T05:58:20.929Z,0.88
2022-08-18T06:00:57.493Z,0.73
2022-08-18T06:03:30.325Z,0.95
2022-08-18T06:06:15.835Z,1.00
2022-08-18T06:08:45.654Z,1.00
2022-08-18T06:11:18.102Z,0.43
2022-08-18T06:13:59.111Z,0.88
2022-08-18T06:16:36.085Z,1.33
2022-08-18T06:19:09.468Z,0.63
2022-08-18T06:21:42.912Z,0.90
2022-08-18T06:24:18.892Z,0.80
2022-08-18T06:26:52.408Z,0.75
2022-08-18T06:29:32.030Z,1.00
2022-08-18T06:32:03.883Z,1.42
2022-08-18T06:34:42.546Z,1.17
2022-08-18T06:37:13.334Z,0.65
2022-08-18T06:39:45.330Z,1.00
2022-08-18T06:42:13.914Z,0.75
2022-08-18T06:44:46.221Z,0.88
2022-08-18T06:47:19.500Z,1.00
2022-08-18T06:49:51.203Z,1.00
2022-08-18T06:52:20.352Z,0.55
2022-08-18T06:54:51.241Z,1.40
2022-08-18T06:57:27.915Z,0.75
2022-08-18T07:00:00.051Z,0.80
2022-08-18T07:02:35.477Z,1.35
2022-08-18T07:05:07.018Z,0.93
2022-08-18T07:07:39.502Z,0.93
2022-08-18T07:10:29.183Z,1.20
2022-08-18T07:13:07.540Z,1.52
2022-08-18T07:15:37.299Z,0.63
2022-08-18T07:18:07.486Z,1.20
2022-08-18T07:20:43.721Z,1.17
2022-08-18T07:23:22.450Z,1.58
2022-08-18T07:25:52.599Z,1.20
2022-08-18T07:28:29.305Z,1.67
2022-08-18T07:31:16.910Z,1.30
2022-08-18T07:33:49.697Z,1.17
2022-08-18T07:36:19.612Z,0.80
2022-08-18T07:38:50.235Z,1.33
2022-08-18T07:41:21.008Z,1.30
2022-08-18T07:43:55.908Z,1.25
2022-08-18T07:48:54.072Z,0.70
2022-08-18T07:51:25.022Z,0.77
2022-08-18T07:53:59.171Z,0.98
2022-08-18T07:56:33.801Z,1.27
2022-08-18T07:59:05.113Z,0.80
2022-08-18T08:01:35.786Z,1.50
2022-08-18T08:04:25.474Z,1.42
2022-08-18T08:07:22.947Z,1.05
2022-08-18T08:09:51.952Z,0.90
2022-08-18T08:14:50.178Z,1.30
2022-08-18T08:17:24.732Z,2.00
2022-08-18T08:20:11.111Z,1.77
2022-08-18T08:22:43.474Z,1.27
2022-08-18T08:25:42.775Z,1.73
2022-08-18T08:28:09.355Z,1.45
2022-08-18T08:30:42.158Z,1.38
2022-08-18T08:33:15.287Z,1.25
2022-08-18T08:35:54.956Z,1.27
2022-08-18T08:38:42.192Z,1.00
2022-08-18T08:41:14.464Z,0.90
2022-08-18T08:43:44.336Z,1.08
2022-08-18T08:46:15.144Z,1.20
2022-08-18T08:48:46.135Z,1.90
2022-08-18T08:51:23.887Z,1.42
2022-08-18T08:53:56.510Z,1.40
2022-08-18T08:56:28.201Z,1.70
2022-08-18T08:58:58.811Z,0.98
2022-08-18T09:01:32.575Z,1.08
2022-08-18T09:04:03.283Z,1.27
2022-08-18T09:06:37.398Z,1.15
2022-08-18T09:09:22.021Z,1.33
2022-08-18T09:11:56.110Z,1.38
2022-08-18T09:14:38.193Z,1.35
2022-08-18T09:17:17.184Z,1.55
2022-08-18T09:19:54.715Z,1.27
2022-08-18T09:22:30.291Z,1.10
2022-08-18T09:24:59.118Z,1.38
2022-08-18T09:28:07.257Z,1.73
2022-08-18T09:30:42.145Z,1.73
2022-08-18T09:33:21.499Z,1.27
2022-08-18T09:36:20.485Z,1.92
2022-08-18T09:39:11.658Z,1.20
2022-08-18T09:41:49.050Z,1.90
2022-08-18T09:44:50.581Z,1.20
2022-08-18T09:47:33.985Z,1.35
2022-08-18T09:50:26.805Z,1.13
2022-08-18T09:52:58.998Z,1.35
2022-08-18T09:55:51.943Z,1.17
2022-08-18T09:58:42.327Z,1.25
2022-08-18T10:01:22.438Z,1.15
2022-08-18T10:04:12.370Z,1.73
2022-08-18T10:06:44.084Z,1.50
2022-08-18T10:09:36.608Z,1.80
2022-08-18T10:12:20.611Z,1.55
2022-08-18T10:15:08.963Z,1.25
2022-08-18T10:17:50.048Z,1.02
2022-08-18T10:20:26.615Z,1.40
2022-08-18T10:22:56.536Z,1.33
2022-08-18T10:25:33.798Z,1.70
2022-08-18T10:28:05.913Z,1.40
2022-08-18T10:34:05.552Z,1.50
2022-08-18T10:36:50.675Z,1.15
2022-08-18T10:41:58.826Z,1.45
2022-08-18T10:44:29.726Z,1.35
2022-08-18T10:47:00.092Z,1.52
2022-08-18T10:49:31.812Z,1.58
2022-08-18T10:52:13.227Z,1.25
2022-08-18T10:54:54.486Z,1.50
2022-08-18T10:57:29.376Z,1.27
2022-08-18T11:00:01.085Z,1.65
2022-08-18T11:02:43.081Z,1.52
2022-08-18T11:05:12.799Z,1.45
2022-08-18T11:07:46.965Z,1.30
2022-08-18T11:10:32.255Z,1.17
2022-08-18T11:16:00.629Z,1.75
2022-08-18T11:18:42.557Z,2.05
2022-08-18T11:21:25.024Z,1.65
2022-08-18T11:24:11.766Z,1.55
2022-08-18T11:26:43.944Z,1.67
2022-08-18T11:29:19.641Z,1.63
2022-08-18T11:31:52.764Z,1.52
2022-08-18T11:34:45.547Z,1.27
2022-08-18T11:37:27.042Z,1.50
2022-08-18T11:39:59.373Z,1.27
2022-08-18T11:42:30.107Z,1.38
2022-08-18T11:45:04.549Z,1.20
2022-08-18T11:50:09.163Z,1.45
2022-08-18T11:52:48.762Z,1.42
2022-08-18T11:55:30.041Z,1.80
2022-08-18T11:58:00.279Z,1.50
2022-08-18T12:03:32.803Z,1.23
2022-08-18T12:06:05.141Z,1.52
2022-08-18T12:11:28.937Z,1.30
2022-08-18T12:14:01.957Z,1.25
2022-08-18T12:16:50.876Z,1.58
2022-08-18T12:19:24.230Z,0.93
2022-08-18T12:21:54.588Z,1.40
2022-08-18T12:24:26.230Z,1.92
2022-08-18T12:27:00.928Z,1.40
2022-08-18T12:29:43.620Z,1.67
2022-08-18T12:32:17.994Z,1.70
2022-08-18T12:35:07.806Z,1.50
2022-08-18T12:40:27.484Z,1.60
2022-08-18T12:42:57.830Z,1.73
2022-08-18T12:45:31.259Z,1.05
2022-08-18T12:48:04.472Z,1.55
2022-08-18T12:50:37.525Z,1.40
2022-08-18T12:55:44.055Z,1.90
2022-08-18T12:58:16.867Z,1.45
2022-08-18T13:00:46.437Z,1.27
2022-08-18T13:03:15.357Z,1.23
2022-08-18T13:05:44.413Z,1.55
2022-08-18T13:08:30.719Z,1.85
2022-08-18T13:11:15.034Z,1.63
2022-08-18T13:13:53.221Z,1.40
2022-08-18T13:16:39.102Z,1.42
2022-08-18T13:19:14.296Z,1.42
2022-08-18T13:21:43.194Z,1.58
2022-08-18T13:24:12.749Z,1.25
2022-08-18T13:26:43.242Z,1.60
2022-08-18T13:29:17.619Z,1.30
2022-08-18T13:31:55.931Z,1.42
2022-08-18T13:34:27.637Z,1.70
2022-08-18T13:36:58.630Z,1.67
2022-08-18T13:39:34.195Z,1.55
2022-08-18T13:42:28.397Z,1.52
2022-08-18T13:44:54.975Z,1.45
2022-08-18T13:47:29.358Z,1.30
2022-08-18T13:49:59.893Z,1.77
2022-08-18T13:52:36.234Z,1.55
2022-08-18T13:55:12.011Z,1.67
2022-08-18T13:57:48.228Z,1.48
2022-08-18T14:00:29.818Z,1.58
2022-08-18T14:03:03.421Z,1.70
2022-08-18T14:05:36.768Z,1.80
2022-08-18T14:08:20.228Z,1.30
2022-08-18T14:10:51.003Z,1.88
2022-08-18T14:13:24.733Z,1.70
2022-08-18T14:15:56.167Z,1.75
2022-08-18T14:18:28.713Z,1.45
2022-08-18T14:21:16.389Z,1.52
2022-08-18T14:24:01.564Z,1.60
2022-08-18T14:26:50.411Z,1.50
2022-08-18T14:29:46.322Z,1.65
2022-08-18T14:32:09.360Z,1.52
2022-08-18T14:34:50.846Z,1.52
2022-08-18T14:37:19.913Z,1.38
2022-08-18T14:39:50.480Z,1.70
2022-08-18T14:42:41.392Z,1.95
2022-08-18T14:45:18.055Z,1.35
2022-08-18T14:48:02.073Z,1.45
2022-08-18T14:50:35.244Z,1.40
2022-08-18T14:53:03.817Z,1.05
2022-08-18T14:55:32.504Z,1.77
2022-08-18T14:58:02.688Z,1.40
2022-08-18T15:00:31.138Z,1.02
2022-08-18T15:03:01.334Z,1.45
2022-08-18T15:05:33.955Z,1.65
2022-08-18T15:08:04.644Z,1.48
2022-08-18T15:10:33.789Z,1.20
2022-08-18T15:13:02.149Z,1.63
2022-08-18T15:15:42.347Z,1.30
2022-08-18T15:18:22.673Z,1.02
2022-08-18T15:21:10.251Z,1.38
2022-08-18T15:24:19.094Z,1.48
2022-08-18T15:26:51.795Z,1.50
2022-08-18T15:29:29.004Z,1.30
2022-08-18T15:32:05.206Z,1.30
2022-08-18T15:34:46.466Z,1.88
2022-08-18T15:37:19.812Z,1.58
2022-08-18T15:39:51.815Z,1.75
2022-08-18T15:42:24.115Z,1.33
2022-08-18T15:44:53.540Z,1.40
2022-08-18T15:47:25.033Z,1.73
2022-08-18T15:49:55.181Z,1.40
2022-08-18T15:52:25.998Z,1.40
2022-08-18T15:54:58.421Z,1.70
2022-08-18T15:57:39.170Z,0.98
2022-08-18T16:00:12.250Z,1.48
2022-08-18T16:02:48.569Z,1.70
2022-08-18T16:05:21.829Z,1.52
2022-08-18T16:07:50.609Z,1.77
2022-08-18T16:10:20.272Z,1.60
2022-08-18T16:12:49.208Z,1.38
2022-08-18T16:15:21.547Z,1.38
2022-08-18T16:17:50.449Z,1.60
2022-08-18T16:20:20.763Z,1.20
2022-08-18T16:22:49.390Z,1.30
2022-08-18T16:25:18.213Z,1.23
2022-08-18T16:27:47.843Z,1.40
2022-08-18T16:30:17.235Z,1.55
2022-08-18T16:32:47.198Z,1.23
2022-08-18T16:35:16.112Z,1.42
2022-08-18T16:37:46.728Z,1.33
2022-08-18T16:40:15.615Z,1.60
2022-08-18T16:42:44.180Z,1.50
2022-08-18T16:45:13.454Z,1.38
2022-08-18T16:47:42.233Z,1.35
2022-08-18T16:50:11.582Z,0.80
2022-08-18T16:52:39.981Z,1.85
2022-08-18T16:55:10.918Z,1.25
2022-08-18T16:57:57.728Z,1.52
2022-08-18T17:00:44.597Z,1.23
2022-08-18T17:03:30.891Z,1.70
2022-08-18T17:06:01.095Z,1.33
2022-08-18T17:08:29.789Z,1.40
2022-08-18T17:10:59.491Z,1.73
2022-08-18T17:13:27.849Z,1.25
2022-08-18T17:15:56.217Z,2.08
2022-08-18T17:18:25.248Z,2.58
2022-08-18T17:20:55.540Z,1.17
2022-08-18T17:23:24.068Z,2.25
2022-08-18T17:25:52.892Z,1.50
2022-08-18T17:28:26.407Z,1.50
2022-08-18T17:30:54.890Z,1.73
2022-08-18T17:33:25.079Z,1.48
2022-08-18T17:35:54.950Z,1.52
2022-08-18T17:38:28.087Z,1.92
2022-08-18T17:40:57.960Z,1.20
2022-08-18T17:43:31.167Z,1.33
2022-08-18T17:46:02.071Z,0.90
2022-08-18T17:48:32.621Z,0.93
2022-08-18T17:51:21.506Z,0.98
2022-08-18T17:53:50.167Z,1.30
2022-08-18T17:56:20.394Z,0.93
2022-08-18T17:58:53.289Z,1.13
2022-08-18T18:01:21.698Z,0.98
2022-08-18T18:03:50.637Z,1.50
2022-08-18T18:06:29.795Z,1.27
2022-08-18T18:09:00.120Z,1.67
2022-08-18T18:11:31.044Z,1.10
2022-08-18T18:14:01.237Z,1.52
2022-08-18T18:16:35.017Z,1.70
2022-08-18T18:19:05.971Z,0.95
2022-08-18T18:22:00.771Z,0.90
2022-08-18T18:24:30.334Z,0.40
2022-08-18T18:26:58.757Z,0.70
2022-08-18T18:29:33.325Z,0.77
2022-08-18T18:32:04.263Z,0.43
2022-08-18T18:34:37.999Z,0.65
2022-08-18T18:37:07.737Z,0.25
2022-08-18T18:39:36.999Z,0.25
2022-08-18T18:42:17.419Z,0.08
2022-08-18T18:44:55.363Z,0.10
2022-08-18T18:47:35.253Z,0.20
2022-08-18T18:50:08.426Z,0.15
2022-08-18T18:52:42.902Z,0.20
2022-08-18T18:55:16.099Z,0.30
2022-08-18T18:57:49.665Z,0.38
2022-08-18T19:00:23.103Z,0.22
2022-08-18T19:02:58.261Z,0.35
2022-08-18T19:05:29.773Z,0.20
2022-08-18T19:08:02.562Z,0.38
2022-08-18T19:10:34.488Z,0.32
2022-08-18T19:13:04.939Z,0.32
2022-08-18T19:15:38.130Z,0.45
2022-08-18T19:18:15.265Z,0.30
2022-08-18T19:21:49.275Z,0.77
2022-08-18T19:23:44.657Z,0.60
2022-08-18T19:26:16.139Z,0.50
2022-08-18T19:29:11.990Z,0.88
2022-08-18T19:31:38.866Z,0.52
2022-08-18T19:34:09.575Z,0.70
2022-08-18T19:36:41.821Z,0.90
2022-08-18T19:39:14.801Z,0.50
2022-08-18T19:41:47.378Z,1.33
2022-08-18T19:44:26.372Z,1.05
2022-08-18T19:46:59.362Z,1.33
2022-08-18T19:49:32.122Z,0.70
2022-08-18T19:52:03.253Z,0.68
2022-08-18T19:54:46.121Z,1.27
2022-08-18T19:57:23.227Z,0.80
2022-08-18T20:00:20.476Z,0.82
2022-08-18T20:03:06.858Z,0.60
2022-08-18T20:05:40.196Z,0.75
2022-08-18T20:08:26.553Z,0.73
2022-08-18T20:11:12.904Z,0.60
2022-08-18T20:13:43.578Z,0.60
2022-08-18T20:16:14.969Z,0.20
2022-08-18T20:18:49.100Z,0.45
2022-08-18T20:21:36.797Z,0.50
2022-08-18T20:24:18.400Z,0.52
2022-08-18T20:26:49.111Z,0.15
2022-08-18T20:29:19.362Z,0.30
2022-08-18T20:31:53.059Z,0.70
2022-08-18T20:34:23.647Z,0.82
2022-08-18T20:36:52.636Z,0.60
2022-08-18T20:39:41.965Z,1.20
2022-08-18T20:42:10.946Z,1.00
2022-08-18T20:44:50.057Z,0.85
2022-08-18T20:47:27.494Z,1.20
2022-08-18T20:50:05.485Z,0.73
2022-08-18T20:52:41.358Z,1.40
2022-08-18T20:55:17.886Z,1.38
2022-08-18T20:57:46.375Z,1.00
2022-08-18T21:00:26.758Z,0.95
2022-08-18T21:02:56.846Z,0.95
2022-08-18T21:05:28.530Z,1.33
2022-08-18T21:08:03.387Z,1.13
2022-08-18T21:10:32.258Z,1.20
2022-08-18T21:13:01.727Z,0.80
2022-08-18T21:15:31.160Z,1.30
2022-08-18T21:18:02.925Z,0.98
2022-08-18T21:20:33.550Z,1.38
2022-08-18T21:23:06.994Z,1.67
2022-08-18T21:25:35.485Z,1.45
2022-08-18T21:28:04.272Z,1.45
2022-08-18T21:30:32.938Z,1.00
2022-08-18T21:33:02.029Z,1.15
2022-08-18T21:35:31.659Z,1.38
2022-08-18T21:38:03.615Z,1.08
2022-08-18T21:40:43.397Z,1.05
2022-08-18T21:43:12.550Z,1.42
2022-08-18T21:45:47.483Z,1.33
2022-08-18T21:48:16.825Z,1.63
2022-08-18T21:50:52.181Z,0.98
2022-08-18T21:53:25.739Z,1.13
2022-08-18T21:55:57.494Z,1.75
2022-08-18T21:58:32.719Z,1.48
2022-08-18T22:01:18.546Z,1.52
2022-08-18T22:03:51.913Z,1.30
2022-08-18T22:06:22.688Z,1.35
2022-08-18T22:08:56.538Z,0.73
2022-08-18T22:12:01.380Z,1.17
2022-08-18T22:14:36.053Z,1.88
2022-08-18T22:17:25.930Z,1.08
2022-08-18T22:19:54.279Z,1.00
2022-08-18T22:22:40.602Z,1.25
2022-08-18T22:25:13.024Z,0.60
2022-08-18T22:27:41.588Z,0.57
2022-08-18T22:30:10.482Z,1.52
2022-08-18T22:32:39.974Z,2.05
2022-08-18T22:35:09.029Z,1.38
2022-08-18T22:37:41.848Z,0.55
2022-08-18T22:40:13.231Z,0.95
2022-08-18T22:42:42.181Z,1.30
2022-08-18T22:45:13.498Z,0.57
2022-08-18T22:47:43.770Z,0.88
2022-08-18T22:50:13.856Z,0.60
2022-08-18T22:52:44.116Z,0.85
2022-08-18T22:55:15.197Z,0.77
2022-08-18T22:57:47.837Z,0.65
2022-08-18T23:00:19.101Z,0.82
2022-08-18T23:02:48.329Z,0.47
2022-08-18T23:05:17.051Z,0.52
2022-08-18T23:07:46.207Z,0.32
2022-08-18T23:10:16.739Z,0.80
2022-08-18T23:12:46.780Z,0.40
2022-08-18T23:15:15.973Z,0.65
2022-08-18T23:17:44.746Z,0.70
2022-08-18T23:20:17.809Z,0.50
2022-08-18T23:22:47.657Z,0.95
2022-08-18T23:25:17.966Z,0.40
2022-08-18T23:27:46.278Z,0.50
2022-08-18T23:30:14.783Z,0.47
2022-08-18T23:32:43.639Z,0.63
2022-08-18T23:35:12.034Z,0.50
2022-08-18T23:37:41.548Z,0.30
2022-08-18T23:40:12.890Z,0.25
2022-08-18T23:42:42.705Z,0.43
2022-08-18T23:45:11.427Z,0.43
2022-08-18T23:47:40.081Z,0.40
2022-08-18T23:50:08.992Z,0.85
2022-08-18T23:52:37.326Z,0.30
2022-08-18T23:55:06.088Z,0.47
2022-08-18T23:57:36.041Z,0.47
